sensor_id;sensor_type;location;lat;lon;timestamp;P1;durP1;ratioP1;P2;durP2;ratioP2
49770;SDS011;35660;41.950;12.536;2022-07-18T00:01:57;4.65;;;3.97;;
49770;SDS011;35660;41.950;12.536;2022-07-18T00:04:24;4.20;;;3.90;;
49770;SDS011;35660;41.950;12.536;2022-07-18T00:06:50;7.80;;;5.18;;
49770;SDS011;35660;41.950;12.536;2022-07-18T00:09:16;4.97;;;4.45;;
49770;SDS011;35660;41.950;12.536;2022-07-18T00:11:41;5.18;;;4.10;;
49770;SDS011;35660;41.950;12.536;2022-07-18T00:14:07;4.90;;;4.50;;
49770;SDS011;35660;41.950;12.536;2022-07-18T00:16:33;5.93;;;4.68;;
49770;SDS011;35660;41.950;12.536;2022-07-18T00:18:59;6.63;;;4.78;;
49770;SDS011;35660;41.950;12.536;2022-07-18T00:21:25;3.58;;;3.28;;
49770;SDS011;35660;41.950;12.536;2022-07-18T00:23:51;3.42;;;3.10;;
49770;SDS011;35660;41.950;12.536;2022-07-18T00:26:17;4.82;;;4.38;;
49770;SDS011;35660;41.950;12.536;2022-07-18T00:28:43;3.83;;;3.53;;
49770;SDS011;35660;41.950;12.536;2022-07-18T00:31:08;4.10;;;3.80;;
49770;SDS011;35660;41.950;12.536;2022-07-18T00:33:34;5.47;;;4.55;;
49770;SDS011;35660;41.950;12.536;2022-07-18T00:36:00;4.28;;;3.88;;
49770;SDS011;35660;41.950;12.536;2022-07-18T00:38:25;4.70;;;4.25;;
49770;SDS011;35660;41.950;12.536;2022-07-18T00:40:51;4.40;;;4.03;;
49770;SDS011;35660;41.950;12.536;2022-07-18T00:43:17;6.65;;;3.97;;
49770;SDS011;35660;41.950;12.536;2022-07-18T00:45:46;6.00;;;5.00;;
49770;SDS011;35660;41.950;12.536;2022-07-18T00:48:12;8.63;;;5.07;;
49770;SDS011;35660;41.950;12.536;2022-07-18T00:50:38;5.97;;;4.32;;
49770;SDS011;35660;41.950;12.536;2022-07-18T00:53:04;4.03;;;3.60;;
49770;SDS011;35660;41.950;12.536;2022-07-18T00:55:31;5.32;;;4.30;;
49770;SDS011;35660;41.950;12.536;2022-07-18T00:57:57;5.13;;;4.20;;
49770;SDS011;35660;41.950;12.536;2022-07-18T01:00:23;4.35;;;4.00;;
49770;SDS011;35660;41.950;12.536;2022-07-18T01:05:33;5.55;;;3.67;;
49770;SDS011;35660;41.950;12.536;2022-07-18T01:07:59;5.60;;;4.28;;
49770;SDS011;35660;41.950;12.536;2022-07-18T01:10:25;5.82;;;4.93;;
49770;SDS011;35660;41.950;12.536;2022-07-18T01:12:51;5.70;;;5.18;;
49770;SDS011;35660;41.950;12.536;2022-07-18T01:15:16;5.63;;;5.13;;
49770;SDS011;35660;41.950;12.536;2022-07-18T01:17:42;5.25;;;4.75;;
49770;SDS011;35660;41.950;12.536;2022-07-18T01:20:08;5.10;;;4.47;;
49770;SDS011;35660;41.950;12.536;2022-07-18T01:22:34;4.47;;;4.00;;
49770;SDS011;35660;41.950;12.536;2022-07-18T01:25:00;6.93;;;4.07;;
49770;SDS011;35660;41.950;12.536;2022-07-18T01:27:25;5.43;;;4.93;;
49770;SDS011;35660;41.950;12.536;2022-07-18T01:29:51;4.82;;;4.32;;
49770;SDS011;35660;41.950;12.536;2022-07-18T01:32:18;7.15;;;4.22;;
49770;SDS011;35660;41.950;12.536;2022-07-18T01:34:47;6.07;;;4.75;;
49770;SDS011;35660;41.950;12.536;2022-07-18T01:37:13;7.93;;;4.35;;
49770;SDS011;35660;41.950;12.536;2022-07-18T01:39:38;4.25;;;3.92;;
49770;SDS011;35660;41.950;12.536;2022-07-18T01:42:05;4.57;;;3.92;;
49770;SDS011;35660;41.950;12.536;2022-07-18T01:44:31;5.65;;;4.20;;
49770;SDS011;35660;41.950;12.536;2022-07-18T01:46:57;5.53;;;4.50;;
49770;SDS011;35660;41.950;12.536;2022-07-18T01:49:23;3.85;;;3.50;;
49770;SDS011;35660;41.950;12.536;2022-07-18T01:51:50;5.07;;;4.57;;
49770;SDS011;35660;41.950;12.536;2022-07-18T01:54:20;6.43;;;4.32;;
49770;SDS011;35660;41.950;12.536;2022-07-18T01:56:46;4.53;;;4.07;;
49770;SDS011;35660;41.950;12.536;2022-07-18T01:59:12;5.55;;;4.50;;
49770;SDS011;35660;41.950;12.536;2022-07-18T02:01:38;4.65;;;4.22;;
49770;SDS011;35660;41.950;12.536;2022-07-18T02:04:03;7.38;;;5.32;;
49770;SDS011;35660;41.950;12.536;2022-07-18T02:06:29;4.32;;;3.97;;
49770;SDS011;35660;41.950;12.536;2022-07-18T02:08:55;7.20;;;4.53;;
49770;SDS011;35660;41.950;12.536;2022-07-18T02:11:21;4.97;;;3.92;;
49770;SDS011;35660;41.950;12.536;2022-07-18T02:13:46;5.45;;;4.18;;
49770;SDS011;35660;41.950;12.536;2022-07-18T02:16:12;4.97;;;4.55;;
49770;SDS011;35660;41.950;12.536;2022-07-18T02:18:38;4.00;;;3.58;;
49770;SDS011;35660;41.950;12.536;2022-07-18T02:21:03;4.28;;;3.97;;
49770;SDS011;35660;41.950;12.536;2022-07-18T02:23:29;6.13;;;4.55;;
49770;SDS011;35660;41.950;12.536;2022-07-18T02:25:55;3.70;;;3.40;;
49770;SDS011;35660;41.950;12.536;2022-07-18T02:28:21;5.03;;;4.57;;
49770;SDS011;35660;41.950;12.536;2022-07-18T02:30:47;5.35;;;4.85;;
49770;SDS011;35660;41.950;12.536;2022-07-18T02:33:14;5.75;;;4.57;;
49770;SDS011;35660;41.950;12.536;2022-07-18T02:35:40;5.72;;;4.97;;
49770;SDS011;35660;41.950;12.536;2022-07-18T02:38:05;5.95;;;4.85;;
49770;SDS011;35660;41.950;12.536;2022-07-18T02:40:31;3.90;;;3.60;;
49770;SDS011;35660;41.950;12.536;2022-07-18T02:42:57;4.78;;;4.38;;
49770;SDS011;35660;41.950;12.536;2022-07-18T02:45:23;6.35;;;5.70;;
49770;SDS011;35660;41.950;12.536;2022-07-18T02:47:49;13.65;;;4.65;;
49770;SDS011;35660;41.950;12.536;2022-07-18T02:50:14;5.03;;;4.57;;
49770;SDS011;35660;41.950;12.536;2022-07-18T02:52:40;5.10;;;4.55;;
49770;SDS011;35660;41.950;12.536;2022-07-18T02:55:07;7.03;;;4.70;;
49770;SDS011;35660;41.950;12.536;2022-07-18T02:57:33;5.30;;;4.60;;
49770;SDS011;35660;41.950;12.536;2022-07-18T02:59:58;8.75;;;5.25;;
49770;SDS011;35660;41.950;12.536;2022-07-18T03:02:24;6.47;;;4.97;;
49770;SDS011;35660;41.950;12.536;2022-07-18T03:04:50;8.77;;;4.10;;
49770;SDS011;35660;41.950;12.536;2022-07-18T03:07:16;7.45;;;5.88;;
49770;SDS011;35660;41.950;12.536;2022-07-18T03:09:41;4.88;;;4.47;;
49770;SDS011;35660;41.950;12.536;2022-07-18T03:12:07;4.85;;;4.50;;
49770;SDS011;35660;41.950;12.536;2022-07-18T03:14:34;8.27;;;4.72;;
49770;SDS011;35660;41.950;12.536;2022-07-18T03:17:00;6.22;;;4.47;;
49770;SDS011;35660;41.950;12.536;2022-07-18T03:19:25;6.45;;;5.55;;
49770;SDS011;35660;41.950;12.536;2022-07-18T03:21:51;5.68;;;4.85;;
49770;SDS011;35660;41.950;12.536;2022-07-18T03:24:17;5.03;;;4.50;;
49770;SDS011;35660;41.950;12.536;2022-07-18T03:26:43;4.97;;;4.53;;
49770;SDS011;35660;41.950;12.536;2022-07-18T03:29:09;5.53;;;4.65;;
49770;SDS011;35660;41.950;12.536;2022-07-18T03:31:35;5.97;;;5.25;;
49770;SDS011;35660;41.950;12.536;2022-07-18T03:34:01;5.85;;;5.32;;
49770;SDS011;35660;41.950;12.536;2022-07-18T03:36:27;6.63;;;6.03;;
49770;SDS011;35660;41.950;12.536;2022-07-18T03:38:53;5.00;;;4.47;;
49770;SDS011;35660;41.950;12.536;2022-07-18T03:41:18;5.85;;;5.25;;
49770;SDS011;35660;41.950;12.536;2022-07-18T03:43:44;7.00;;;5.90;;
49770;SDS011;35660;41.950;12.536;2022-07-18T03:46:10;10.43;;;6.55;;
49770;SDS011;35660;41.950;12.536;2022-07-18T03:48:36;4.70;;;4.30;;
49770;SDS011;35660;41.950;12.536;2022-07-18T03:51:02;5.95;;;5.40;;
49770;SDS011;35660;41.950;12.536;2022-07-18T03:53:28;6.00;;;5.40;;
49770;SDS011;35660;41.950;12.536;2022-07-18T03:55:54;5.38;;;4.93;;
49770;SDS011;35660;41.950;12.536;2022-07-18T03:58:19;7.10;;;5.20;;
49770;SDS011;35660;41.950;12.536;2022-07-18T04:00:45;6.35;;;5.15;;
49770;SDS011;35660;41.950;12.536;2022-07-18T04:03:11;7.45;;;4.90;;
49770;SDS011;35660;41.950;12.536;2022-07-18T04:05:36;4.55;;;4.15;;
49770;SDS011;35660;41.950;12.536;2022-07-18T04:08:02;4.57;;;4.18;;
49770;SDS011;35660;41.950;12.536;2022-07-18T04:10:28;5.28;;;4.43;;
49770;SDS011;35660;41.950;12.536;2022-07-18T04:12:54;4.40;;;3.97;;
49770;SDS011;35660;41.950;12.536;2022-07-18T04:15:21;7.60;;;5.18;;
49770;SDS011;35660;41.950;12.536;2022-07-18T04:17:47;8.85;;;4.55;;
49770;SDS011;35660;41.950;12.536;2022-07-18T04:20:13;6.38;;;4.90;;
49770;SDS011;35660;41.950;12.536;2022-07-18T04:25:11;5.00;;;4.25;;
49770;SDS011;35660;41.950;12.536;2022-07-18T04:27:37;5.53;;;5.07;;
49770;SDS011;35660;41.950;12.536;2022-07-18T04:30:03;9.25;;;4.50;;
49770;SDS011;35660;41.950;12.536;2022-07-18T04:32:29;5.45;;;4.38;;
49770;SDS011;35660;41.950;12.536;2022-07-18T04:34:54;5.32;;;4.38;;
49770;SDS011;35660;41.950;12.536;2022-07-18T04:37:20;7.22;;;6.50;;
49770;SDS011;35660;41.950;12.536;2022-07-18T04:39:46;9.15;;;6.53;;
49770;SDS011;35660;41.950;12.536;2022-07-18T04:42:11;10.80;;;6.05;;
49770;SDS011;35660;41.950;12.536;2022-07-18T04:44:37;7.10;;;5.05;;
49770;SDS011;35660;41.950;12.536;2022-07-18T04:47:03;5.43;;;3.95;;
49770;SDS011;35660;41.950;12.536;2022-07-18T04:49:28;4.45;;;4.05;;
49770;SDS011;35660;41.950;12.536;2022-07-18T04:51:54;4.90;;;4.43;;
49770;SDS011;35660;41.950;12.536;2022-07-18T04:54:20;5.35;;;4.35;;
49770;SDS011;35660;41.950;12.536;2022-07-18T04:56:46;5.50;;;5.00;;
49770;SDS011;35660;41.950;12.536;2022-07-18T04:59:11;5.00;;;4.45;;
49770;SDS011;35660;41.950;12.536;2022-07-18T05:01:37;5.20;;;4.28;;
49770;SDS011;35660;41.950;12.536;2022-07-18T05:04:03;7.70;;;5.70;;
49770;SDS011;35660;41.950;12.536;2022-07-18T05:06:29;4.70;;;4.30;;
49770;SDS011;35660;41.950;12.536;2022-07-18T05:08:54;3.95;;;3.60;;
49770;SDS011;35660;41.950;12.536;2022-07-18T05:11:20;7.10;;;4.95;;
49770;SDS011;35660;41.950;12.536;2022-07-18T05:13:46;5.90;;;4.78;;
49770;SDS011;35660;41.950;12.536;2022-07-18T05:16:11;4.65;;;4.25;;
49770;SDS011;35660;41.950;12.536;2022-07-18T05:18:37;3.78;;;3.33;;
49770;SDS011;35660;41.950;12.536;2022-07-18T05:21:03;4.30;;;3.88;;
49770;SDS011;35660;41.950;12.536;2022-07-18T05:23:28;4.45;;;3.85;;
49770;SDS011;35660;41.950;12.536;2022-07-18T05:25:54;4.65;;;4.05;;
49770;SDS011;35660;41.950;12.536;2022-07-18T05:28:20;4.63;;;4.18;;
49770;SDS011;35660;41.950;12.536;2022-07-18T05:30:45;4.47;;;4.07;;
49770;SDS011;35660;41.950;12.536;2022-07-18T05:33:11;4.88;;;4.38;;
49770;SDS011;35660;41.950;12.536;2022-07-18T05:35:37;4.28;;;3.88;;
49770;SDS011;35660;41.950;12.536;2022-07-18T05:38:03;4.75;;;4.35;;
49770;SDS011;35660;41.950;12.536;2022-07-18T05:40:28;4.25;;;3.85;;
49770;SDS011;35660;41.950;12.536;2022-07-18T05:42:54;5.72;;;5.07;;
49770;SDS011;35660;41.950;12.536;2022-07-18T05:45:20;5.05;;;3.88;;
49770;SDS011;35660;41.950;12.536;2022-07-18T05:47:46;4.00;;;3.67;;
49770;SDS011;35660;41.950;12.536;2022-07-18T05:50:12;5.47;;;4.97;;
49770;SDS011;35660;41.950;12.536;2022-07-18T05:52:38;4.93;;;4.53;;
49770;SDS011;35660;41.950;12.536;2022-07-18T05:55:04;5.57;;;4.68;;
49770;SDS011;35660;41.950;12.536;2022-07-18T05:57:29;5.00;;;4.60;;
49770;SDS011;35660;41.950;12.536;2022-07-18T05:59:55;7.40;;;4.13;;
49770;SDS011;35660;41.950;12.536;2022-07-18T06:02:21;5.28;;;3.97;;
49770;SDS011;35660;41.950;12.536;2022-07-18T06:04:46;4.80;;;4.32;;
49770;SDS011;35660;41.950;12.536;2022-07-18T06:07:12;5.30;;;4.80;;
49770;SDS011;35660;41.950;12.536;2022-07-18T06:09:38;3.88;;;3.58;;
49770;SDS011;35660;41.950;12.536;2022-07-18T06:12:04;6.55;;;5.47;;
49770;SDS011;35660;41.950;12.536;2022-07-18T06:14:30;9.27;;;5.35;;
49770;SDS011;35660;41.950;12.536;2022-07-18T06:16:57;6.93;;;4.55;;
49770;SDS011;35660;41.950;12.536;2022-07-18T06:19:23;5.38;;;4.85;;
49770;SDS011;35660;41.950;12.536;2022-07-18T06:21:49;4.93;;;4.47;;
49770;SDS011;35660;41.950;12.536;2022-07-18T06:24:15;3.92;;;3.63;;
49770;SDS011;35660;41.950;12.536;2022-07-18T06:26:41;4.80;;;4.40;;
49770;SDS011;35660;41.950;12.536;2022-07-18T06:29:07;5.60;;;4.82;;
49770;SDS011;35660;41.950;12.536;2022-07-18T06:31:32;5.00;;;4.60;;
49770;SDS011;35660;41.950;12.536;2022-07-18T06:33:58;8.07;;;5.55;;
49770;SDS011;35660;41.950;12.536;2022-07-18T06:36:24;5.03;;;4.63;;
49770;SDS011;35660;41.950;12.536;2022-07-18T06:38:50;7.57;;;4.78;;
49770;SDS011;35660;41.950;12.536;2022-07-18T06:41:16;7.10;;;4.07;;
49770;SDS011;35660;41.950;12.536;2022-07-18T06:43:42;5.38;;;4.38;;
49770;SDS011;35660;41.950;12.536;2022-07-18T06:46:08;4.93;;;4.43;;
49770;SDS011;35660;41.950;12.536;2022-07-18T06:48:33;5.57;;;4.80;;
49770;SDS011;35660;41.950;12.536;2022-07-18T06:51:00;5.55;;;5.05;;
49770;SDS011;35660;41.950;12.536;2022-07-18T06:53:27;5.85;;;5.40;;
49770;SDS011;35660;41.950;12.536;2022-07-18T06:55:53;9.18;;;4.55;;
49770;SDS011;35660;41.950;12.536;2022-07-18T06:58:19;5.65;;;4.00;;
49770;SDS011;35660;41.950;12.536;2022-07-18T07:00:45;5.80;;;4.32;;
49770;SDS011;35660;41.950;12.536;2022-07-18T07:03:10;6.55;;;4.85;;
49770;SDS011;35660;41.950;12.536;2022-07-18T07:05:36;9.68;;;6.60;;
49770;SDS011;35660;41.950;12.536;2022-07-18T07:08:03;5.30;;;4.25;;
49770;SDS011;35660;41.950;12.536;2022-07-18T07:10:29;9.40;;;6.50;;
49770;SDS011;35660;41.950;12.536;2022-07-18T07:12:55;5.03;;;4.63;;
49770;SDS011;35660;41.950;12.536;2022-07-18T07:15:22;5.57;;;5.10;;
49770;SDS011;35660;41.950;12.536;2022-07-18T07:17:48;5.38;;;4.88;;
49770;SDS011;35660;41.950;12.536;2022-07-18T07:20:15;6.03;;;5.50;;
49770;SDS011;35660;41.950;12.536;2022-07-18T07:22:43;4.55;;;4.15;;
49770;SDS011;35660;41.950;12.536;2022-07-18T07:25:09;4.82;;;4.43;;
49770;SDS011;35660;41.950;12.536;2022-07-18T07:27:35;6.88;;;6.28;;
49770;SDS011;35660;41.950;12.536;2022-07-18T07:30:01;5.25;;;4.68;;
49770;SDS011;35660;41.950;12.536;2022-07-18T07:32:26;4.72;;;4.43;;
49770;SDS011;35660;41.950;12.536;2022-07-18T07:34:52;4.78;;;4.38;;
49770;SDS011;35660;41.950;12.536;2022-07-18T07:37:18;5.47;;;4.90;;
49770;SDS011;35660;41.950;12.536;2022-07-18T07:39:44;6.30;;;5.70;;
49770;SDS011;35660;41.950;12.536;2022-07-18T07:42:09;5.45;;;5.00;;
49770;SDS011;35660;41.950;12.536;2022-07-18T07:44:35;6.30;;;5.70;;
49770;SDS011;35660;41.950;12.536;2022-07-18T07:47:01;5.22;;;4.82;;
49770;SDS011;35660;41.950;12.536;2022-07-18T07:49:26;5.07;;;4.68;;
49770;SDS011;35660;41.950;12.536;2022-07-18T07:51:53;4.90;;;4.38;;
49770;SDS011;35660;41.950;12.536;2022-07-18T07:54:19;6.05;;;4.50;;
49770;SDS011;35660;41.950;12.536;2022-07-18T07:56:44;12.50;;;5.60;;
49770;SDS011;35660;41.950;12.536;2022-07-18T07:59:10;7.03;;;5.82;;
49770;SDS011;35660;41.950;12.536;2022-07-18T08:01:36;5.55;;;5.05;;
49770;SDS011;35660;41.950;12.536;2022-07-18T08:04:01;5.75;;;4.25;;
49770;SDS011;35660;41.950;12.536;2022-07-18T08:06:27;5.32;;;4.40;;
49770;SDS011;35660;41.950;12.536;2022-07-18T08:08:53;5.40;;;4.93;;
49770;SDS011;35660;41.950;12.536;2022-07-18T08:11:18;5.93;;;4.93;;
49770;SDS011;35660;41.950;12.536;2022-07-18T08:13:44;5.40;;;4.85;;
49770;SDS011;35660;41.950;12.536;2022-07-18T08:16:10;5.30;;;4.25;;
49770;SDS011;35660;41.950;12.536;2022-07-18T08:18:35;8.65;;;4.22;;
49770;SDS011;35660;41.950;12.536;2022-07-18T08:21:01;4.13;;;3.72;;
49770;SDS011;35660;41.950;12.536;2022-07-18T08:23:27;5.40;;;4.90;;
49770;SDS011;35660;41.950;12.536;2022-07-18T08:25:52;3.78;;;3.47;;
49770;SDS011;35660;41.950;12.536;2022-07-18T08:28:18;5.57;;;4.45;;
49770;SDS011;35660;41.950;12.536;2022-07-18T08:30:44;5.72;;;4.65;;
49770;SDS011;35660;41.950;12.536;2022-07-18T08:33:10;4.00;;;3.60;;
49770;SDS011;35660;41.950;12.536;2022-07-18T08:35:36;4.70;;;4.30;;
49770;SDS011;35660;41.950;12.536;2022-07-18T08:38:02;4.43;;;4.13;;
49770;SDS011;35660;41.950;12.536;2022-07-18T08:40:28;4.07;;;3.78;;
49770;SDS011;35660;41.950;12.536;2022-07-18T08:42:54;6.43;;;5.80;;
49770;SDS011;35660;41.950;12.536;2022-07-18T08:45:21;4.97;;;4.22;;
49770;SDS011;35660;41.950;12.536;2022-07-18T08:47:47;4.93;;;4.50;;
49770;SDS011;35660;41.950;12.536;2022-07-18T08:50:13;5.22;;;4.80;;
49770;SDS011;35660;41.950;12.536;2022-07-18T08:52:39;4.32;;;4.03;;
49770;SDS011;35660;41.950;12.536;2022-07-18T08:55:08;4.03;;;3.72;;
49770;SDS011;35660;41.950;12.536;2022-07-18T08:57:34;5.25;;;4.03;;
49770;SDS011;35660;41.950;12.536;2022-07-18T09:00:02;4.60;;;4.25;;
49770;SDS011;35660;41.950;12.536;2022-07-18T09:02:28;4.30;;;3.90;;
49770;SDS011;35660;41.950;12.536;2022-07-18T09:04:54;4.78;;;4.38;;
49770;SDS011;35660;41.950;12.536;2022-07-18T09:07:24;4.97;;;4.43;;
49770;SDS011;35660;41.950;12.536;2022-07-18T09:09:54;4.47;;;4.07;;
49770;SDS011;35660;41.950;12.536;2022-07-18T09:12:20;4.43;;;3.63;;
49770;SDS011;35660;41.950;12.536;2022-07-18T09:14:46;4.47;;;4.18;;
49770;SDS011;35660;41.950;12.536;2022-07-18T09:17:16;4.43;;;4.03;;
49770;SDS011;35660;41.950;12.536;2022-07-18T09:19:43;5.35;;;4.85;;
49770;SDS011;35660;41.950;12.536;2022-07-18T09:22:21;4.60;;;4.20;;
49770;SDS011;35660;41.950;12.536;2022-07-18T09:30:39;5.28;;;3.70;;
49770;SDS011;35660;41.950;12.536;2022-07-18T09:33:27;4.82;;;4.35;;
49770;SDS011;35660;41.950;12.536;2022-07-18T09:35:29;4.03;;;3.72;;
49770;SDS011;35660;41.950;12.536;2022-07-18T09:37:59;3.75;;;3.45;;
49770;SDS011;35660;41.950;12.536;2022-07-18T09:42:53;6.25;;;4.50;;
49770;SDS011;35660;41.950;12.536;2022-07-18T09:45:22;9.63;;;4.35;;
49770;SDS011;35660;41.950;12.536;2022-07-18T09:47:58;4.97;;;4.57;;
49770;SDS011;35660;41.950;12.536;2022-07-18T09:53:53;5.55;;;4.78;;
49770;SDS011;35660;41.950;12.536;2022-07-18T09:56:23;4.95;;;4.45;;
49770;SDS011;35660;41.950;12.536;2022-07-18T09:58:50;4.60;;;4.20;;
49770;SDS011;35660;41.950;12.536;2022-07-18T10:01:16;6.50;;;4.00;;
49770;SDS011;35660;41.950;12.536;2022-07-18T10:03:42;3.85;;;3.55;;
49770;SDS011;35660;41.950;12.536;2022-07-18T10:06:07;5.78;;;5.22;;
49770;SDS011;35660;41.950;12.536;2022-07-18T10:08:33;4.65;;;4.22;;
49770;SDS011;35660;41.950;12.536;2022-07-18T10:11:00;5.05;;;4.55;;
49770;SDS011;35660;41.950;12.536;2022-07-18T10:13:27;4.88;;;3.85;;
49770;SDS011;35660;41.950;12.536;2022-07-18T10:15:53;4.78;;;4.28;;
49770;SDS011;35660;41.950;12.536;2022-07-18T10:18:23;4.60;;;4.20;;
49770;SDS011;35660;41.950;12.536;2022-07-18T10:20:50;5.03;;;4.63;;
49770;SDS011;35660;41.950;12.536;2022-07-18T10:23:19;5.82;;;4.38;;
49770;SDS011;35660;41.950;12.536;2022-07-18T10:26:04;3.42;;;3.20;;
49770;SDS011;35660;41.950;12.536;2022-07-18T10:28:30;5.88;;;3.55;;
49770;SDS011;35660;41.950;12.536;2022-07-18T10:30:56;13.63;;;4.63;;
49770;SDS011;35660;41.950;12.536;2022-07-18T10:33:38;3.85;;;3.58;;
49770;SDS011;35660;41.950;12.536;2022-07-18T10:36:08;5.18;;;4.25;;
49770;SDS011;35660;41.950;12.536;2022-07-18T10:38:34;4.05;;;3.75;;
49770;SDS011;35660;41.950;12.536;2022-07-18T10:41:01;4.45;;;3.92;;
49770;SDS011;35660;41.950;12.536;2022-07-18T10:45:55;3.58;;;3.28;;
49770;SDS011;35660;41.950;12.536;2022-07-18T10:50:59;5.30;;;4.80;;
49770;SDS011;35660;41.950;12.536;2022-07-18T10:53:52;7.60;;;4.10;;
49770;SDS011;35660;41.950;12.536;2022-07-18T10:56:11;3.88;;;3.58;;
49770;SDS011;35660;41.950;12.536;2022-07-18T10:58:40;6.03;;;3.58;;
49770;SDS011;35660;41.950;12.536;2022-07-18T11:01:06;4.53;;;4.15;;
49770;SDS011;35660;41.950;12.536;2022-07-18T11:03:35;4.45;;;4.07;;
49770;SDS011;35660;41.950;12.536;2022-07-18T11:06:00;4.18;;;3.72;;
49770;SDS011;35660;41.950;12.536;2022-07-18T11:08:29;4.50;;;4.10;;
49770;SDS011;35660;41.950;12.536;2022-07-18T11:11:02;4.93;;;3.80;;
49770;SDS011;35660;41.950;12.536;2022-07-18T11:15:59;4.82;;;3.95;;
49770;SDS011;35660;41.950;12.536;2022-07-18T11:18:25;4.43;;;3.70;;
49770;SDS011;35660;41.950;12.536;2022-07-18T11:20:51;4.68;;;3.65;;
49770;SDS011;35660;41.950;12.536;2022-07-18T11:25:43;3.83;;;3.53;;
49770;SDS011;35660;41.950;12.536;2022-07-18T11:28:10;3.70;;;3.42;;
49770;SDS011;35660;41.950;12.536;2022-07-18T11:30:36;4.75;;;4.35;;
49770;SDS011;35660;41.950;12.536;2022-07-18T11:33:02;6.07;;;5.07;;
49770;SDS011;35660;41.950;12.536;2022-07-18T11:35:29;5.82;;;5.32;;
49770;SDS011;35660;41.950;12.536;2022-07-18T11:37:54;6.18;;;5.45;;
49770;SDS011;35660;41.950;12.536;2022-07-18T11:40:21;6.82;;;5.57;;
49770;SDS011;35660;41.950;12.536;2022-07-18T11:42:47;4.82;;;4.43;;
49770;SDS011;35660;41.950;12.536;2022-07-18T11:45:14;8.73;;;5.15;;
49770;SDS011;35660;41.950;12.536;2022-07-18T11:47:47;5.95;;;5.55;;
49770;SDS011;35660;41.950;12.536;2022-07-18T11:50:14;6.05;;;5.50;;
49770;SDS011;35660;41.950;12.536;2022-07-18T11:52:40;5.10;;;4.72;;
49770;SDS011;35660;41.950;12.536;2022-07-18T11:55:06;5.47;;;5.03;;
49770;SDS011;35660;41.950;12.536;2022-07-18T11:57:32;8.48;;;6.75;;
49770;SDS011;35660;41.950;12.536;2022-07-18T11:59:59;6.15;;;5.70;;
49770;SDS011;35660;41.950;12.536;2022-07-18T12:05:41;6.85;;;4.63;;
49770;SDS011;35660;41.950;12.536;2022-07-18T12:13:38;4.75;;;3.78;;
49770;SDS011;35660;41.950;12.536;2022-07-18T12:16:04;6.07;;;4.20;;
49770;SDS011;35660;41.950;12.536;2022-07-18T12:18:29;9.50;;;4.78;;
49770;SDS011;35660;41.950;12.536;2022-07-18T12:21:08;5.38;;;4.78;;
49770;SDS011;35660;41.950;12.536;2022-07-18T12:23:34;4.60;;;4.00;;
49770;SDS011;35660;41.950;12.536;2022-07-18T12:25:59;4.15;;;3.85;;
49770;SDS011;35660;41.950;12.536;2022-07-18T12:28:27;4.45;;;4.15;;
49770;SDS011;35660;41.950;12.536;2022-07-18T12:30:53;4.03;;;3.72;;
49770;SDS011;35660;41.950;12.536;2022-07-18T12:33:19;4.28;;;3.97;;
49770;SDS011;35660;41.950;12.536;2022-07-18T12:35:45;5.55;;;5.05;;
49770;SDS011;35660;41.950;12.536;2022-07-18T12:40:44;4.53;;;4.00;;
49770;SDS011;35660;41.950;12.536;2022-07-18T12:43:11;3.75;;;3.55;;
49770;SDS011;35660;41.950;12.536;2022-07-18T12:45:38;5.38;;;3.97;;
49770;SDS011;35660;41.950;12.536;2022-07-18T12:48:04;3.25;;;3.00;;
49770;SDS011;35660;41.950;12.536;2022-07-18T12:50:30;5.55;;;3.72;;
49770;SDS011;35660;41.950;12.536;2022-07-18T12:52:57;3.72;;;3.42;;
49770;SDS011;35660;41.950;12.536;2022-07-18T12:55:23;3.60;;;3.38;;
49770;SDS011;35660;41.950;12.536;2022-07-18T12:57:49;4.75;;;3.80;;
49770;SDS011;35660;41.950;12.536;2022-07-18T13:00:15;4.38;;;4.00;;
49770;SDS011;35660;41.950;12.536;2022-07-18T13:02:44;4.28;;;3.97;;
49770;SDS011;35660;41.950;12.536;2022-07-18T13:05:09;4.20;;;3.83;;
49770;SDS011;35660;41.950;12.536;2022-07-18T13:07:35;8.93;;;3.97;;
49770;SDS011;35660;41.950;12.536;2022-07-18T13:10:01;4.45;;;4.05;;
49770;SDS011;35660;41.950;12.536;2022-07-18T13:12:27;5.60;;;5.15;;
49770;SDS011;35660;41.950;12.536;2022-07-18T13:14:53;7.35;;;6.75;;
49770;SDS011;35660;41.950;12.536;2022-07-18T13:17:18;6.75;;;6.20;;
49770;SDS011;35660;41.950;12.536;2022-07-18T13:19:44;7.70;;;6.90;;
49770;SDS011;35660;41.950;12.536;2022-07-18T13:22:10;6.25;;;5.70;;
49770;SDS011;35660;41.950;12.536;2022-07-18T13:24:36;5.80;;;4.72;;
49770;SDS011;35660;41.950;12.536;2022-07-18T13:27:03;8.60;;;5.47;;
49770;SDS011;35660;41.950;12.536;2022-07-18T13:29:28;8.95;;;7.35;;
49770;SDS011;35660;41.950;12.536;2022-07-18T13:31:54;9.98;;;7.00;;
49770;SDS011;35660;41.950;12.536;2022-07-18T13:34:21;9.23;;;7.07;;
49770;SDS011;35660;41.950;12.536;2022-07-18T13:36:47;6.78;;;5.72;;
49770;SDS011;35660;41.950;12.536;2022-07-18T13:39:13;7.68;;;6.68;;
49770;SDS011;35660;41.950;12.536;2022-07-18T13:41:39;7.45;;;6.85;;
49770;SDS011;35660;41.950;12.536;2022-07-18T13:44:05;7.32;;;6.63;;
49770;SDS011;35660;41.950;12.536;2022-07-18T13:46:30;8.30;;;5.63;;
49770;SDS011;35660;41.950;12.536;2022-07-18T13:48:56;9.85;;;5.88;;
49770;SDS011;35660;41.950;12.536;2022-07-18T13:51:22;10.65;;;5.60;;
49770;SDS011;35660;41.950;12.536;2022-07-18T13:53:48;6.30;;;5.22;;
49770;SDS011;35660;41.950;12.536;2022-07-18T13:56:13;6.70;;;5.50;;
49770;SDS011;35660;41.950;12.536;2022-07-18T13:58:39;7.20;;;6.70;;
49770;SDS011;35660;41.950;12.536;2022-07-18T14:01:05;8.05;;;7.18;;
49770;SDS011;35660;41.950;12.536;2022-07-18T14:03:31;9.10;;;7.80;;
49770;SDS011;35660;41.950;12.536;2022-07-18T14:05:56;6.65;;;6.07;;
49770;SDS011;35660;41.950;12.536;2022-07-18T14:08:22;8.60;;;7.93;;
49770;SDS011;35660;41.950;12.536;2022-07-18T14:10:48;8.48;;;7.35;;
49770;SDS011;35660;41.950;12.536;2022-07-18T14:13:13;9.88;;;8.02;;
49770;SDS011;35660;41.950;12.536;2022-07-18T14:15:39;6.47;;;5.93;;
49770;SDS011;35660;41.950;12.536;2022-07-18T14:18:05;5.78;;;4.68;;
49770;SDS011;35660;41.950;12.536;2022-07-18T14:20:31;12.20;;;6.05;;
49770;SDS011;35660;41.950;12.536;2022-07-18T14:22:57;4.07;;;3.78;;
49770;SDS011;35660;41.950;12.536;2022-07-18T14:25:23;5.22;;;4.20;;
49770;SDS011;35660;41.950;12.536;2022-07-18T14:27:49;7.63;;;3.80;;
49770;SDS011;35660;41.950;12.536;2022-07-18T14:30:15;6.63;;;3.40;;
49770;SDS011;35660;41.950;12.536;2022-07-18T14:32:42;3.45;;;3.20;;
49770;SDS011;35660;41.950;12.536;2022-07-18T14:35:09;5.43;;;3.97;;
49770;SDS011;35660;41.950;12.536;2022-07-18T14:37:35;4.28;;;3.58;;
49770;SDS011;35660;41.950;12.536;2022-07-18T14:40:00;4.68;;;2.95;;
49770;SDS011;35660;41.950;12.536;2022-07-18T14:42:26;3.17;;;2.90;;
49770;SDS011;35660;41.950;12.536;2022-07-18T14:44:52;8.55;;;2.85;;
49770;SDS011;35660;41.950;12.536;2022-07-18T14:47:18;5.03;;;3.42;;
49770;SDS011;35660;41.950;12.536;2022-07-18T14:49:44;3.45;;;3.25;;
49770;SDS011;35660;41.950;12.536;2022-07-18T14:52:10;4.57;;;3.50;;
49770;SDS011;35660;41.950;12.536;2022-07-18T14:54:36;3.25;;;3.03;;
49770;SDS011;35660;41.950;12.536;2022-07-18T14:57:01;3.78;;;3.47;;
49770;SDS011;35660;41.950;12.536;2022-07-18T14:59:28;4.10;;;3.80;;
49770;SDS011;35660;41.950;12.536;2022-07-18T15:01:54;6.22;;;4.43;;
49770;SDS011;35660;41.950;12.536;2022-07-18T15:04:21;3.33;;;2.83;;
49770;SDS011;35660;41.950;12.536;2022-07-18T15:06:47;6.07;;;3.30;;